createdAt,value
2022-11-21T00:03:06.697Z,4.74
2022-11-21T00:06:31.957Z,4.73
2022-11-21T00:09:57.203Z,4.73
2022-11-21T00:13:22.436Z,4.75
2022-11-21T00:16:47.657Z,4.79
2022-11-21T00:20:12.886Z,4.82
2022-11-21T00:23:38.123Z,4.85
2022-11-21T00:27:03.349Z,4.9
2022-11-21T00:30:28.659Z,4.97
2022-11-21T00:33:53.904Z,5.06
2022-11-21T00:37:19.107Z,5.12
2022-11-21T00:40:44.351Z,5.14
2022-11-21T00:44:09.578Z,5.16
2022-11-21T00:47:34.802Z,5.17
2022-11-21T00:51:00.033Z,5.18
2022-11-21T00:54:25.520Z,5.24
2022-11-21T00:57:50.590Z,5.27
2022-11-21T01:01:15.902Z,5.29
2022-11-21T01:04:41.080Z,5.3
2022-11-21T01:08:06.352Z,5.31
2022-11-21T01:11:31.569Z,5.37
2022-11-21T01:14:56.834Z,5.42
2022-11-21T01:18:22.027Z,5.47
2022-11-21T01:21:47.270Z,5.51
2022-11-21T01:25:12.504Z,5.55
2022-11-21T01:28:37.736Z,5.63
2022-11-21T01:32:02.984Z,5.7
2022-11-21T01:35:28.181Z,5.75
2022-11-21T01:38:53.380Z,5.82
2022-11-21T01:42:18.603Z,5.86
2022-11-21T01:45:43.827Z,5.87
2022-11-21T01:49:09.076Z,5.87
2022-11-21T01:52:34.330Z,5.91
2022-11-21T01:55:59.586Z,5.89
2022-11-21T01:59:24.808Z,5.9
2022-11-21T02:02:50.046Z,5.89
2022-11-21T02:06:15.306Z,5.81
2022-11-21T02:09:40.511Z,5.77
2022-11-21T02:13:05.747Z,5.74
2022-11-21T02:16:30.989Z,5.71
2022-11-21T02:19:56.209Z,5.74
2022-11-21T02:23:21.453Z,5.76
2022-11-21T02:26:46.679Z,5.73
2022-11-21T02:30:11.889Z,5.74
2022-11-21T02:33:37.109Z,5.76
2022-11-21T02:37:02.319Z,5.78
2022-11-21T02:40:27.581Z,5.76
2022-11-21T02:43:52.793Z,5.74
2022-11-21T02:47:18.012Z,5.69
2022-11-21T02:50:43.261Z,5.67
2022-11-21T02:54:08.481Z,5.69
2022-11-21T02:57:33.713Z,5.73
2022-11-21T03:00:58.954Z,5.72
2022-11-21T03:04:24.132Z,5.72
2022-11-21T03:07:49.371Z,5.76
2022-11-21T03:11:14.619Z,5.82
2022-11-21T03:14:39.820Z,5.85
2022-11-21T03:18:05.000Z,5.86
2022-11-21T03:21:30.230Z,5.89
2022-11-21T03:24:55.491Z,5.91
2022-11-21T03:28:20.689Z,5.92
2022-11-21T03:31:45.969Z,5.93
2022-11-21T03:35:11.148Z,5.91
2022-11-21T03:38:36.340Z,5.92
2022-11-21T03:42:01.566Z,5.96
2022-11-21T03:45:26.780Z,5.95
2022-11-21T03:48:52.020Z,5.92
2022-11-21T03:52:17.226Z,5.93
2022-11-21T03:55:42.429Z,5.95
2022-11-21T03:59:07.664Z,5.95
2022-11-21T04:02:32.898Z,5.94
2022-11-21T04:05:58.131Z,5.97
2022-11-21T04:09:23.380Z,5.98
2022-11-21T04:12:48.607Z,5.99
2022-11-21T04:16:13.832Z,5.98
2022-11-21T04:19:39.039Z,5.99
2022-11-21T04:23:04.267Z,5.99
2022-11-21T04:26:29.458Z,5.99
2022-11-21T04:29:54.662Z,6
2022-11-21T04:33:19.867Z,6.02
2022-11-21T04:36:45.136Z,6.01
2022-11-21T04:40:10.390Z,6.02
2022-11-21T04:43:35.581Z,5.99
2022-11-21T04:47:04.998Z,6.01
2022-11-21T04:50:26.011Z,6.06
2022-11-21T04:53:51.234Z,6.09
2022-11-21T04:57:16.467Z,6.13
2022-11-21T05:00:41.675Z,6.14
2022-11-21T05:04:06.972Z,6.17
2022-11-21T05:07:32.251Z,6.21
2022-11-21T05:10:57.476Z,6.2
2022-11-21T05:14:22.717Z,6.22
2022-11-21T05:17:47.919Z,6.25
2022-11-21T05:21:13.170Z,6.23
2022-11-21T05:24:38.403Z,6.23
2022-11-21T05:28:03.627Z,6.22
2022-11-21T05:31:28.902Z,6.2
2022-11-21T05:34:54.128Z,6.19
2022-11-21T05:38:19.356Z,6.2
2022-11-21T05:41:44.602Z,6.26
2022-11-21T05:45:09.795Z,6.31
2022-11-21T05:48:35.069Z,6.3
2022-11-21T05:52:00.334Z,6.34
2022-11-21T05:55:25.601Z,6.4
2022-11-21T05:58:50.826Z,6.45
2022-11-21T06:02:16.064Z,6.5
2022-11-21T06:05:41.308Z,6.5
2022-11-21T06:09:06.499Z,6.5
2022-11-21T06:12:31.719Z,6.45
2022-11-21T06:15:57.833Z,6.38
2022-11-21T06:19:23.044Z,6.26
2022-11-21T06:22:48.279Z,6.14
2022-11-21T06:26:13.464Z,6.06
2022-11-21T06:29:38.692Z,5.97
2022-11-21T06:33:03.969Z,5.95
2022-11-21T06:36:29.169Z,5.94
2022-11-21T06:39:54.404Z,5.95
2022-11-21T06:43:19.616Z,5.97
2022-11-21T06:46:48.337Z,5.93
2022-11-21T06:50:10.028Z,5.91
2022-11-21T06:53:35.271Z,5.95
2022-11-21T06:57:00.479Z,5.93
2022-11-21T07:00:25.710Z,5.9
2022-11-21T07:03:50.943Z,5.91
2022-11-21T07:07:16.212Z,5.93
2022-11-21T07:10:52.276Z,5.96
2022-11-21T07:14:09.235Z,5.93
2022-11-21T07:17:31.974Z,5.95
2022-11-21T07:20:57.246Z,5.95
2022-11-21T07:24:22.450Z,5.97
2022-11-21T07:27:47.665Z,5.98
2022-11-21T07:31:14.060Z,6.01
2022-11-21T07:34:38.072Z,6.1
2022-11-21T07:38:03.283Z,6.21
2022-11-21T07:41:28.486Z,6.31
2022-11-21T07:44:53.681Z,6.41
2022-11-21T07:48:18.922Z,6.47
2022-11-21T07:51:44.109Z,6.5
2022-11-21T07:55:09.306Z,6.53
2022-11-21T07:58:34.512Z,6.6
2022-11-21T08:01:59.754Z,6.65
2022-11-21T08:05:24.945Z,6.71
2022-11-21T08:08:50.106Z,6.76
2022-11-21T08:12:15.325Z,6.79
2022-11-21T08:15:40.533Z,6.8
2022-11-21T08:19:05.733Z,6.84
2022-11-21T08:22:30.950Z,6.91
2022-11-21T08:25:56.165Z,6.96
2022-11-21T08:29:22.337Z,7.01
2022-11-21T08:32:47.535Z,7.04
2022-11-21T08:36:12.744Z,7.07
2022-11-21T08:39:37.964Z,7.11
2022-11-21T08:43:03.153Z,7.13
2022-11-21T08:46:28.350Z,7.17
2022-11-21T08:49:53.549Z,7.19
2022-11-21T08:53:18.767Z,7.21
2022-11-21T08:56:44.028Z,7.24
2022-11-21T09:00:09.189Z,7.28
2022-11-21T09:03:34.396Z,7.33
2022-11-21T09:06:59.719Z,7.36
2022-11-21T09:10:24.815Z,7.41
2022-11-21T09:13:50.044Z,7.47
2022-11-21T09:17:15.238Z,7.54
2022-11-21T09:20:40.500Z,7.56
2022-11-21T09:24:05.633Z,7.56
2022-11-21T09:27:30.837Z,7.59
2022-11-21T09:30:56.071Z,7.61
2022-11-21T09:34:21.228Z,7.64
2022-11-21T09:37:47.007Z,7.71
2022-11-21T09:41:11.632Z,7.78
2022-11-21T09:44:36.849Z,7.82
2022-11-21T09:48:02.089Z,7.88
2022-11-21T09:51:27.262Z,7.94
2022-11-21T09:54:52.457Z,7.99
2022-11-21T09:58:17.670Z,8
2022-11-21T10:01:42.902Z,8
2022-11-21T10:05:08.109Z,8.05
2022-11-21T10:08:33.299Z,8.09
2022-11-21T10:11:58.516Z,8.14
2022-11-21T10:15:23.747Z,8.22
2022-11-21T10:18:49.595Z,8.3
2022-11-21T10:22:14.241Z,8.29
2022-11-21T10:25:39.417Z,8.27
2022-11-21T10:29:04.597Z,8.25
2022-11-21T10:32:29.797Z,8.22
2022-11-21T10:35:55.021Z,8.25
2022-11-21T10:39:20.235Z,8.25
2022-11-21T10:42:45.422Z,8.22
2022-11-21T10:46:10.627Z,8.15
2022-11-21T10:49:35.845Z,8.09
2022-11-21T10:53:01.109Z,8.1
2022-11-21T10:56:26.455Z,8.12
2022-11-21T10:59:51.619Z,8.12
2022-11-21T11:03:16.850Z,8.12
2022-11-21T11:06:42.085Z,8.18
2022-11-21T11:10:07.310Z,8.24
2022-11-21T11:13:49.819Z,8.26
2022-11-21T11:16:57.741Z,8.28
2022-11-21T11:20:22.958Z,8.31
2022-11-21T11:23:48.214Z,8.34
2022-11-21T11:27:13.435Z,8.39
2022-11-21T11:30:38.686Z,8.39
2022-11-21T11:34:03.911Z,8.35
2022-11-21T11:37:29.652Z,8.27
2022-11-21T11:40:54.935Z,8.22
2022-11-21T11:44:20.344Z,8.12
2022-11-21T11:47:48.925Z,8.08
2022-11-21T11:51:10.834Z,8
2022-11-21T11:54:36.043Z,7.92
2022-11-21T11:58:01.258Z,7.91
2022-11-21T12:01:26.507Z,7.95
2022-11-21T12:04:51.763Z,7.99
2022-11-21T12:11:42.245Z,8.09
2022-11-21T12:15:07.464Z,8.12
2022-11-21T12:18:32.683Z,8.12
2022-11-21T12:21:57.949Z,8.13
2022-11-21T12:25:23.155Z,8.08
2022-11-21T12:28:48.415Z,8.06
2022-11-21T12:32:13.647Z,8.09
2022-11-21T12:35:38.902Z,8.12
2022-11-21T12:39:04.155Z,8.1
2022-11-21T12:42:29.355Z,8.06
2022-11-21T12:45:54.575Z,7.96
2022-11-21T12:49:19.820Z,7.91
2022-11-21T12:52:45.020Z,7.89
2022-11-21T12:56:10.276Z,7.9
2022-11-21T12:59:35.474Z,7.93
2022-11-21T13:03:00.718Z,7.95
2022-11-21T13:06:26.007Z,7.96
2022-11-21T13:09:51.212Z,7.91
2022-11-21T13:13:16.457Z,7.88
2022-11-21T13:16:41.672Z,7.85
2022-11-21T13:20:06.882Z,7.88
2022-11-21T13:23:32.171Z,7.92
2022-11-21T13:26:57.432Z,7.95
2022-11-21T13:30:23.433Z,7.99
2022-11-21T13:33:48.683Z,8.04
2022-11-21T13:37:13.923Z,8.05
2022-11-21T13:40:39.196Z,8.06
2022-11-21T13:44:04.401Z,8.08
2022-11-21T13:47:29.690Z,8.12
2022-11-21T13:50:54.913Z,8.1
2022-11-21T13:54:20.225Z,8.04
2022-11-21T13:57:45.548Z,7.96
2022-11-21T14:01:10.852Z,7.88
2022-11-21T14:04:36.173Z,7.85
2022-11-21T14:08:01.565Z,7.77
2022-11-21T14:11:26.777Z,7.66
2022-11-21T14:14:52.025Z,7.65
2022-11-21T14:18:17.336Z,7.59
2022-11-21T14:21:42.665Z,7.55
2022-11-21T14:25:07.933Z,7.48
2022-11-21T14:28:33.240Z,7.43
2022-11-21T15:04:10.107Z,5.25
2022-11-21T15:07:35.440Z,6.18
2022-11-21T15:11:00.659Z,6.39
2022-11-21T15:14:25.975Z,6.62
2022-11-21T15:18:18.297Z,6.79
2022-11-21T15:21:16.617Z,6.93
2022-11-21T15:24:41.945Z,7.07
2022-11-21T15:28:07.285Z,7.19
2022-11-21T15:31:32.552Z,7.26
2022-11-21T15:34:57.889Z,7.26
2022-11-21T15:38:23.223Z,7.3
2022-11-21T15:41:48.501Z,7.34
2022-11-21T15:45:18.434Z,7.42
2022-11-21T15:48:39.059Z,7.49
2022-11-21T15:52:09.478Z,7.51
2022-11-21T15:55:29.694Z,7.53
2022-11-21T15:58:54.953Z,7.54
2022-11-21T16:02:20.272Z,7.57
2022-11-21T16:05:45.570Z,7.6
2022-11-21T16:09:10.916Z,7.65
2022-11-21T16:12:36.257Z,7.67
2022-11-21T16:16:01.516Z,7.7
2022-11-21T16:19:27.152Z,7.75
2022-11-21T16:22:52.096Z,7.78
2022-11-21T16:26:17.534Z,7.79
2022-11-21T16:29:42.839Z,7.8
2022-11-21T16:33:08.086Z,7.79
2022-11-21T16:36:33.655Z,7.78
2022-11-21T16:39:58.922Z,7.74
2022-11-21T16:43:24.803Z,7.65
2022-11-21T16:46:50.327Z,7.59
2022-11-21T16:50:15.587Z,7.58
2022-11-21T16:53:40.909Z,7.61
2022-11-21T16:57:06.200Z,7.61
2022-11-21T17:00:31.597Z,7.64
2022-11-21T17:03:56.901Z,7.63
2022-11-21T17:07:22.216Z,7.67
2022-11-21T17:10:47.521Z,7.7
2022-11-21T17:14:12.851Z,7.76
2022-11-21T17:17:38.133Z,7.8
2022-11-21T17:21:03.466Z,7.82
2022-11-21T17:24:28.954Z,7.83
2022-11-21T17:27:54.024Z,7.82
2022-11-21T17:31:19.305Z,7.78
2022-11-21T17:34:44.592Z,7.75
2022-11-21T17:38:09.867Z,7.72
2022-11-21T17:41:35.117Z,7.73
2022-11-21T17:45:00.411Z,7.76
2022-11-21T17:48:25.703Z,7.79
2022-11-21T17:51:55.290Z,7.82
2022-11-21T17:55:16.386Z,7.85
2022-11-21T17:58:41.580Z,7.84
2022-11-21T18:02:06.993Z,7.8
2022-11-21T18:05:32.153Z,7.78
2022-11-21T18:08:57.407Z,7.74
2022-11-21T18:12:22.724Z,7.74
2022-11-21T18:15:48.196Z,7.72
2022-11-21T18:19:13.238Z,7.7
2022-11-21T18:22:38.488Z,7.69
2022-11-21T18:26:03.736Z,7.66
2022-11-21T18:29:36.021Z,7.56
2022-11-21T18:32:54.270Z,7.47
2022-11-21T18:36:19.548Z,7.44
2022-11-21T18:39:44.778Z,7.39
2022-11-21T18:43:10.034Z,7.45
2022-11-21T18:46:35.331Z,7.49
2022-11-21T18:50:00.658Z,7.49
2022-11-21T18:53:25.914Z,7.45
2022-11-21T18:56:51.164Z,7.4
2022-11-21T19:00:16.433Z,7.33
2022-11-21T19:03:41.721Z,7.29
2022-11-21T19:07:07.009Z,7.26
2022-11-21T19:10:47.553Z,7.27
2022-11-21T19:13:57.452Z,7.29
2022-11-21T19:17:22.677Z,7.32
2022-11-21T19:20:47.929Z,7.33
2022-11-21T19:24:13.380Z,7.31
2022-11-21T19:27:38.352Z,7.22
2022-11-21T19:31:03.590Z,7.16
2022-11-21T19:34:28.820Z,7.18
2022-11-21T19:37:54.067Z,7.13
2022-11-21T19:41:19.271Z,7.03
2022-11-21T19:44:44.470Z,6.87
2022-11-21T19:48:09.676Z,6.72
2022-11-21T19:51:34.933Z,6.6
2022-11-21T19:55:00.159Z,6.57
2022-11-21T19:58:25.334Z,6.56
2022-11-21T20:01:52.768Z,6.57
2022-11-21T20:05:15.820Z,6.59
2022-11-21T20:08:41.082Z,6.62
2022-11-21T20:12:06.336Z,6.67
2022-11-21T20:15:31.563Z,6.68
2022-11-21T20:18:56.790Z,6.64
2022-11-21T20:22:21.997Z,6.57
2022-11-21T20:25:47.221Z,6.46
2022-11-21T20:29:12.492Z,6.39
2022-11-21T20:32:37.703Z,6.35
2022-11-21T20:36:02.925Z,6.31
2022-11-21T20:39:28.525Z,6.28
2022-11-21T20:42:53.456Z,6.22
2022-11-21T20:46:20.583Z,6.18
2022-11-21T20:49:43.834Z,6.06
2022-11-21T20:56:34.200Z,6
2022-11-21T20:59:59.382Z,6.03
2022-11-21T21:03:24.609Z,6
2022-11-21T21:06:49.777Z,5.94
2022-11-21T21:10:14.966Z,5.97
2022-11-21T21:13:40.174Z,6.05
2022-11-21T21:17:05.391Z,6.17
2022-11-21T21:20:36.256Z,6.29
2022-11-21T21:23:56.305Z,6.35
2022-11-21T21:27:21.507Z,6.39
2022-11-21T21:30:46.710Z,6.45
2022-11-21T21:34:11.908Z,6.51
2022-11-21T21:37:37.133Z,6.57
2022-11-21T21:41:02.299Z,6.62
2022-11-21T21:44:32.911Z,6.64
2022-11-21T21:47:52.684Z,6.68
2022-11-21T21:51:17.879Z,6.71
2022-11-21T21:54:43.098Z,6.73
2022-11-21T21:58:08.265Z,6.71
2022-11-21T22:01:33.638Z,6.65
2022-11-21T22:04:58.645Z,6.64
2022-11-21T22:08:23.841Z,6.61
2022-11-21T22:11:49.066Z,6.61
2022-11-21T22:15:14.230Z,6.64
2022-11-21T22:18:39.425Z,6.66
2022-11-21T22:22:04.625Z,6.67
2022-11-21T22:25:29.815Z,6.64
2022-11-21T22:28:55.052Z,6.64
2022-11-21T22:32:20.283Z,6.64
2022-11-21T22:35:45.415Z,6.66
2022-11-21T22:39:10.599Z,6.68
2022-11-21T22:42:35.798Z,6.69
2022-11-21T22:46:01.009Z,6.7
2022-11-21T22:49:26.166Z,6.67
2022-11-21T22:52:51.387Z,6.68
2022-11-21T22:56:16.556Z,6.7
2022-11-21T22:59:41.741Z,6.71
2022-11-21T23:03:06.968Z,6.68
2022-11-21T23:06:32.136Z,6.66
2022-11-21T23:09:57.315Z,6.68
2022-11-21T23:13:22.519Z,6.68
2022-11-21T23:16:47.706Z,6.68
2022-11-21T23:20:12.910Z,6.68
2022-11-21T23:23:38.075Z,6.74
2022-11-21T23:27:03.257Z,6.78
2022-11-21T23:30:28.433Z,6.8
2022-11-21T23:33:53.627Z,6.79
2022-11-21T23:37:18.849Z,6.81
2022-11-21T23:40:44.032Z,6.78
2022-11-21T23:44:09.230Z,6.72
2022-11-21T23:47:34.420Z,6.72
2022-11-21T23:50:59.620Z,6.72
2022-11-21T23:54:24.828Z,6.69
2022-11-21T23:57:50.016Z,6.69
